sensor_id;sensor_type;location;lat;lon;timestamp;temperature;humidity
1680;DHT22;838;51.794;12.258;2024-01-27T00:00:09;6.20;32.50
1680;DHT22;838;51.794;12.258;2024-01-27T00:02:36;6.20;33.40
1680;DHT22;838;51.794;12.258;2024-01-27T00:05:02;6.20;33.20
1680;DHT22;838;51.794;12.258;2024-01-27T00:07:28;6.20;33.60
1680;DHT22;838;51.794;12.258;2024-01-27T00:09:54;6.20;32.20
1680;DHT22;838;51.794;12.258;2024-01-27T00:12:20;6.20;32.10
1680;DHT22;838;51.794;12.258;2024-01-27T00:14:46;6.10;31.70
1680;DHT22;838;51.794;12.258;2024-01-27T00:17:12;6.10;32.10
1680;DHT22;838;51.794;12.258;2024-01-27T00:19:37;6.00;30.50
1680;DHT22;838;51.794;12.258;2024-01-27T00:22:03;6.00;31.20
1680;DHT22;838;51.794;12.258;2024-01-27T00:24:29;6.10;30.80
1680;DHT22;838;51.794;12.258;2024-01-27T00:26:55;6.10;31.00
1680;DHT22;838;51.794;12.258;2024-01-27T00:29:21;6.10;31.60
1680;DHT22;838;51.794;12.258;2024-01-27T00:31:47;6.10;31.30
1680;DHT22;838;51.794;12.258;2024-01-27T00:34:14;6.10;31.70
1680;DHT22;838;51.794;12.258;2024-01-27T00:36:40;6.00;30.80
1680;DHT22;838;51.794;12.258;2024-01-27T00:39:08;6.00;31.30
1680;DHT22;838;51.794;12.258;2024-01-27T00:41:34;6.00;30.90
1680;DHT22;838;51.794;12.258;2024-01-27T00:43:59;6.00;30.30
1680;DHT22;838;51.794;12.258;2024-01-27T00:46:25;6.00;29.90
1680;DHT22;838;51.794;12.258;2024-01-27T00:48:51;5.90;30.30
1680;DHT22;838;51.794;12.258;2024-01-27T00:51:17;5.90;30.80
1680;DHT22;838;51.794;12.258;2024-01-27T00:53:44;5.80;30.80
1680;DHT22;838;51.794;12.258;2024-01-27T00:56:09;5.80;31.10
1680;DHT22;838;51.794;12.258;2024-01-27T00:58:35;5.70;31.80
1680;DHT22;838;51.794;12.258;2024-01-27T01:01:01;5.70;31.40
1680;DHT22;838;51.794;12.258;2024-01-27T01:03:27;5.70;32.80
1680;DHT22;838;51.794;12.258;2024-01-27T01:05:52;5.70;32.60
1680;DHT22;838;51.794;12.258;2024-01-27T01:08:18;5.60;32.80
1680;DHT22;838;51.794;12.258;2024-01-27T01:10:44;5.70;32.20
1680;DHT22;838;51.794;12.258;2024-01-27T01:13:10;5.70;32.40
1680;DHT22;838;51.794;12.258;2024-01-27T01:15:36;5.60;32.70
1680;DHT22;838;51.794;12.258;2024-01-27T01:18:01;5.60;33.40
1680;DHT22;838;51.794;12.258;2024-01-27T01:20:27;5.60;32.90
1680;DHT22;838;51.794;12.258;2024-01-27T01:22:53;5.50;33.90
1680;DHT22;838;51.794;12.258;2024-01-27T01:25:19;5.50;33.80
1680;DHT22;838;51.794;12.258;2024-01-27T01:27:48;5.50;32.30
1680;DHT22;838;51.794;12.258;2024-01-27T01:30:15;5.50;31.70
1680;DHT22;838;51.794;12.258;2024-01-27T01:32:41;5.50;31.50
1680;DHT22;838;51.794;12.258;2024-01-27T01:35:07;5.50;32.10
1680;DHT22;838;51.794;12.258;2024-01-27T01:37:32;5.50;31.50
1680;DHT22;838;51.794;12.258;2024-01-27T01:39:58;5.50;31.40
1680;DHT22;838;51.794;12.258;2024-01-27T01:42:24;5.50;31.10
1680;DHT22;838;51.794;12.258;2024-01-27T01:44:51;5.60;30.90
1680;DHT22;838;51.794;12.258;2024-01-27T01:47:17;5.70;30.40
1680;DHT22;838;51.794;12.258;2024-01-27T01:49:43;5.70;31.00
1680;DHT22;838;51.794;12.258;2024-01-27T01:52:09;5.70;29.70
1680;DHT22;838;51.794;12.258;2024-01-27T01:54:36;5.60;30.50
1680;DHT22;838;51.794;12.258;2024-01-27T01:57:03;5.60;30.50
1680;DHT22;838;51.794;12.258;2024-01-27T01:59:29;5.60;30.10
1680;DHT22;838;51.794;12.258;2024-01-27T02:01:55;5.60;30.50
1680;DHT22;838;51.794;12.258;2024-01-27T02:04:20;5.50;30.10
1680;DHT22;838;51.794;12.258;2024-01-27T02:06:46;5.50;30.00
1680;DHT22;838;51.794;12.258;2024-01-27T02:09:12;5.50;30.20
1680;DHT22;838;51.794;12.258;2024-01-27T02:11:38;5.50;29.70
1680;DHT22;838;51.794;12.258;2024-01-27T02:14:04;5.40;29.40
1680;DHT22;838;51.794;12.258;2024-01-27T02:16:30;5.40;29.50
1680;DHT22;838;51.794;12.258;2024-01-27T02:18:55;5.50;28.00
1680;DHT22;838;51.794;12.258;2024-01-27T02:21:21;5.50;28.00
1680;DHT22;838;51.794;12.258;2024-01-27T02:23:47;5.50;28.10
1680;DHT22;838;51.794;12.258;2024-01-27T02:26:12;5.50;27.70
1680;DHT22;838;51.794;12.258;2024-01-27T02:28:38;5.60;28.70
1680;DHT22;838;51.794;12.258;2024-01-27T02:31:04;5.50;28.50
1680;DHT22;838;51.794;12.258;2024-01-27T02:33:30;5.50;29.40
1680;DHT22;838;51.794;12.258;2024-01-27T02:35:56;5.50;29.00
1680;DHT22;838;51.794;12.258;2024-01-27T02:38:24;5.40;29.40
1680;DHT22;838;51.794;12.258;2024-01-27T02:40:50;5.40;29.80
1680;DHT22;838;51.794;12.258;2024-01-27T02:43:15;5.30;30.30
1680;DHT22;838;51.794;12.258;2024-01-27T02:45:41;5.30;31.60
1680;DHT22;838;51.794;12.258;2024-01-27T02:48:07;5.20;31.70
1680;DHT22;838;51.794;12.258;2024-01-27T02:50:32;5.20;32.10
1680;DHT22;838;51.794;12.258;2024-01-27T02:52:58;5.20;32.60
1680;DHT22;838;51.794;12.258;2024-01-27T02:55:24;5.30;32.00
1680;DHT22;838;51.794;12.258;2024-01-27T02:57:50;5.30;32.20
1680;DHT22;838;51.794;12.258;2024-01-27T03:00:16;5.20;32.40
1680;DHT22;838;51.794;12.258;2024-01-27T03:02:43;5.20;32.80
1680;DHT22;838;51.794;12.258;2024-01-27T03:05:08;5.20;33.10
1680;DHT22;838;51.794;12.258;2024-01-27T03:07:34;5.20;33.50
1680;DHT22;838;51.794;12.258;2024-01-27T03:10:00;5.10;34.10
1680;DHT22;838;51.794;12.258;2024-01-27T03:12:25;5.10;34.20
1680;DHT22;838;51.794;12.258;2024-01-27T03:14:51;5.10;34.20
1680;DHT22;838;51.794;12.258;2024-01-27T03:17:17;5.10;34.40
1680;DHT22;838;51.794;12.258;2024-01-27T03:19:43;5.10;35.00
1680;DHT22;838;51.794;12.258;2024-01-27T03:22:08;5.20;34.80
1680;DHT22;838;51.794;12.258;2024-01-27T03:24:34;5.20;34.40
1680;DHT22;838;51.794;12.258;2024-01-27T03:27:00;5.20;34.40
1680;DHT22;838;51.794;12.258;2024-01-27T03:29:26;5.20;33.70
1680;DHT22;838;51.794;12.258;2024-01-27T03:31:51;5.30;33.30
1680;DHT22;838;51.794;12.258;2024-01-27T03:34:17;5.30;33.60
1680;DHT22;838;51.794;12.258;2024-01-27T03:36:48;5.30;33.70
1680;DHT22;838;51.794;12.258;2024-01-27T03:39:14;5.30;33.30
1680;DHT22;838;51.794;12.258;2024-01-27T03:41:39;5.40;32.40
1680;DHT22;838;51.794;12.258;2024-01-27T03:44:05;5.40;33.20
1680;DHT22;838;51.794;12.258;2024-01-27T03:46:31;5.30;33.50
1680;DHT22;838;51.794;12.258;2024-01-27T03:48:56;5.40;33.30
1680;DHT22;838;51.794;12.258;2024-01-27T03:51:22;5.40;32.40
1680;DHT22;838;51.794;12.258;2024-01-27T03:53:48;5.40;32.80
1680;DHT22;838;51.794;12.258;2024-01-27T03:56:14;5.40;32.70
1680;DHT22;838;51.794;12.258;2024-01-27T03:58:40;5.40;33.10
1680;DHT22;838;51.794;12.258;2024-01-27T04:01:06;5.40;33.40
1680;DHT22;838;51.794;12.258;2024-01-27T04:03:32;5.40;33.50
1680;DHT22;838;51.794;12.258;2024-01-27T04:05:57;5.40;33.50
1680;DHT22;838;51.794;12.258;2024-01-27T04:08:23;5.50;33.60
1680;DHT22;838;51.794;12.258;2024-01-27T04:10:49;5.50;33.30
1680;DHT22;838;51.794;12.258;2024-01-27T04:13:15;5.60;33.50
1680;DHT22;838;51.794;12.258;2024-01-27T04:15:41;5.60;33.20
1680;DHT22;838;51.794;12.258;2024-01-27T04:18:07;5.60;32.80
1680;DHT22;838;51.794;12.258;2024-01-27T04:20:37;5.70;32.50
1680;DHT22;838;51.794;12.258;2024-01-27T04:23:03;5.70;32.60
1680;DHT22;838;51.794;12.258;2024-01-27T04:25:29;5.70;32.60
1680;DHT22;838;51.794;12.258;2024-01-27T04:27:55;5.70;32.80
1680;DHT22;838;51.794;12.258;2024-01-27T04:30:20;5.70;33.20
1680;DHT22;838;51.794;12.258;2024-01-27T04:32:46;5.70;33.10
1680;DHT22;838;51.794;12.258;2024-01-27T04:35:14;5.70;33.30
1680;DHT22;838;51.794;12.258;2024-01-27T04:37:40;5.70;33.80
1680;DHT22;838;51.794;12.258;2024-01-27T04:40:06;5.70;33.60
1680;DHT22;838;51.794;12.258;2024-01-27T04:42:38;5.70;34.10
1680;DHT22;838;51.794;12.258;2024-01-27T04:45:05;5.70;34.90
1680;DHT22;838;51.794;12.258;2024-01-27T04:47:31;5.70;35.90
1680;DHT22;838;51.794;12.258;2024-01-27T04:49:57;5.60;36.60
1680;DHT22;838;51.794;12.258;2024-01-27T04:52:23;5.70;36.60
1680;DHT22;838;51.794;12.258;2024-01-27T04:54:49;5.60;37.40
1680;DHT22;838;51.794;12.258;2024-01-27T04:57:15;5.60;37.80
1680;DHT22;838;51.794;12.258;2024-01-27T04:59:41;5.60;38.50
1680;DHT22;838;51.794;12.258;2024-01-27T05:02:07;5.70;39.50
1680;DHT22;838;51.794;12.258;2024-01-27T05:04:32;5.70;38.20
1680;DHT22;838;51.794;12.258;2024-01-27T05:06:59;5.70;38.60
1680;DHT22;838;51.794;12.258;2024-01-27T05:09:25;5.70;38.30
1680;DHT22;838;51.794;12.258;2024-01-27T05:11:51;5.70;38.70
1680;DHT22;838;51.794;12.258;2024-01-27T05:14:20;5.70;38.20
1680;DHT22;838;51.794;12.258;2024-01-27T05:16:45;5.70;39.00
1680;DHT22;838;51.794;12.258;2024-01-27T05:19:11;5.60;38.80
1680;DHT22;838;51.794;12.258;2024-01-27T05:21:38;5.70;38.30
1680;DHT22;838;51.794;12.258;2024-01-27T05:24:04;5.80;38.50
1680;DHT22;838;51.794;12.258;2024-01-27T05:26:30;5.80;36.80
1680;DHT22;838;51.794;12.258;2024-01-27T05:28:56;5.80;36.80
1680;DHT22;838;51.794;12.258;2024-01-27T05:31:21;5.70;38.00
1680;DHT22;838;51.794;12.258;2024-01-27T05:33:47;5.80;37.30
1680;DHT22;838;51.794;12.258;2024-01-27T05:36:13;5.90;36.90
1680;DHT22;838;51.794;12.258;2024-01-27T05:38:38;6.00;36.40
1680;DHT22;838;51.794;12.258;2024-01-27T05:41:04;5.70;34.60
1680;DHT22;838;51.794;12.258;2024-01-27T05:43:30;6.00;35.40
1680;DHT22;838;51.794;12.258;2024-01-27T05:45:56;5.90;36.10
1680;DHT22;838;51.794;12.258;2024-01-27T05:48:21;5.90;35.90
1680;DHT22;838;51.794;12.258;2024-01-27T05:50:58;5.90;36.90
1680;DHT22;838;51.794;12.258;2024-01-27T05:53:24;5.70;38.20
1680;DHT22;838;51.794;12.258;2024-01-27T05:55:50;5.70;38.80
1680;DHT22;838;51.794;12.258;2024-01-27T05:58:16;5.60;40.00
1680;DHT22;838;51.794;12.258;2024-01-27T06:00:45;5.60;40.50
1680;DHT22;838;51.794;12.258;2024-01-27T06:03:10;5.50;41.70
1680;DHT22;838;51.794;12.258;2024-01-27T06:05:37;5.40;43.00
1680;DHT22;838;51.794;12.258;2024-01-27T06:08:04;5.30;44.20
1680;DHT22;838;51.794;12.258;2024-01-27T06:10:29;5.20;45.10
1680;DHT22;838;51.794;12.258;2024-01-27T06:12:57;5.10;46.30
1680;DHT22;838;51.794;12.258;2024-01-27T06:15:23;5.10;48.60
1680;DHT22;838;51.794;12.258;2024-01-27T06:17:48;5.10;46.60
1680;DHT22;838;51.794;12.258;2024-01-27T06:20:14;5.10;47.40
1680;DHT22;838;51.794;12.258;2024-01-27T06:22:42;5.00;49.10
1680;DHT22;838;51.794;12.258;2024-01-27T06:25:08;5.00;48.90
1680;DHT22;838;51.794;12.258;2024-01-27T06:27:34;5.00;49.80
1680;DHT22;838;51.794;12.258;2024-01-27T06:30:00;5.00;51.30
1680;DHT22;838;51.794;12.258;2024-01-27T06:32:26;5.00;51.80
1680;DHT22;838;51.794;12.258;2024-01-27T06:34:52;5.20;50.10
1680;DHT22;838;51.794;12.258;2024-01-27T06:37:17;5.30;49.40
1680;DHT22;838;51.794;12.258;2024-01-27T06:39:43;5.40;47.70
1680;DHT22;838;51.794;12.258;2024-01-27T06:42:09;5.50;46.30
1680;DHT22;838;51.794;12.258;2024-01-27T06:44:35;5.50;46.90
1680;DHT22;838;51.794;12.258;2024-01-27T06:47:00;5.50;46.20
1680;DHT22;838;51.794;12.258;2024-01-27T06:49:26;5.50;45.90
1680;DHT22;838;51.794;12.258;2024-01-27T06:51:52;5.50;45.90
1680;DHT22;838;51.794;12.258;2024-01-27T06:54:17;5.60;45.40
1680;DHT22;838;51.794;12.258;2024-01-27T06:56:43;5.60;45.10
1680;DHT22;838;51.794;12.258;2024-01-27T06:59:09;5.60;45.40
1680;DHT22;838;51.794;12.258;2024-01-27T07:01:34;5.60;44.30
1680;DHT22;838;51.794;12.258;2024-01-27T07:04:00;5.70;43.60
1680;DHT22;838;51.794;12.258;2024-01-27T07:06:26;5.80;42.80
1680;DHT22;838;51.794;12.258;2024-01-27T07:08:51;5.80;42.10
1680;DHT22;838;51.794;12.258;2024-01-27T07:11:17;5.80;42.60
1680;DHT22;838;51.794;12.258;2024-01-27T07:13:43;5.80;42.60
1680;DHT22;838;51.794;12.258;2024-01-27T07:16:08;5.80;41.60
1680;DHT22;838;51.794;12.258;2024-01-27T07:18:35;5.80;41.40
1680;DHT22;838;51.794;12.258;2024-01-27T07:21:01;5.90;41.10
1680;DHT22;838;51.794;12.258;2024-01-27T07:23:27;5.90;41.20
1680;DHT22;838;51.794;12.258;2024-01-27T07:25:55;5.80;40.80
1680;DHT22;838;51.794;12.258;2024-01-27T07:28:21;5.90;41.80
1680;DHT22;838;51.794;12.258;2024-01-27T07:30:46;5.90;40.30
1680;DHT22;838;51.794;12.258;2024-01-27T07:33:12;5.90;40.20
1680;DHT22;838;51.794;12.258;2024-01-27T07:35:38;5.90;39.40
1680;DHT22;838;51.794;12.258;2024-01-27T07:38:04;5.90;40.70
1680;DHT22;838;51.794;12.258;2024-01-27T07:40:29;5.80;42.30
1680;DHT22;838;51.794;12.258;2024-01-27T07:42:55;5.80;41.80
1680;DHT22;838;51.794;12.258;2024-01-27T07:45:21;5.80;41.70
1680;DHT22;838;51.794;12.258;2024-01-27T07:47:47;5.90;41.90
1680;DHT22;838;51.794;12.258;2024-01-27T07:50:12;6.00;41.40
1680;DHT22;838;51.794;12.258;2024-01-27T07:52:38;6.00;41.10
1680;DHT22;838;51.794;12.258;2024-01-27T07:55:04;6.20;41.20
1680;DHT22;838;51.794;12.258;2024-01-27T07:57:30;6.30;39.50
1680;DHT22;838;51.794;12.258;2024-01-27T07:59:56;6.30;37.20
1680;DHT22;838;51.794;12.258;2024-01-27T08:02:22;6.20;39.30
1680;DHT22;838;51.794;12.258;2024-01-27T08:04:48;6.40;36.40
1680;DHT22;838;51.794;12.258;2024-01-27T08:07:13;6.30;37.20
1680;DHT22;838;51.794;12.258;2024-01-27T08:09:41;6.30;37.20
1680;DHT22;838;51.794;12.258;2024-01-27T08:12:07;6.30;37.70
1680;DHT22;838;51.794;12.258;2024-01-27T08:14:33;6.40;37.30
1680;DHT22;838;51.794;12.258;2024-01-27T08:17:01;6.40;35.60
1680;DHT22;838;51.794;12.258;2024-01-27T08:19:26;6.30;37.20
1680;DHT22;838;51.794;12.258;2024-01-27T08:21:52;6.30;37.20
1680;DHT22;838;51.794;12.258;2024-01-27T08:24:18;6.20;37.20
1680;DHT22;838;51.794;12.258;2024-01-27T08:26:43;6.30;37.90
1680;DHT22;838;51.794;12.258;2024-01-27T08:29:10;6.20;37.40
1680;DHT22;838;51.794;12.258;2024-01-27T08:31:36;6.20;37.10
1680;DHT22;838;51.794;12.258;2024-01-27T08:34:04;6.10;37.00
1680;DHT22;838;51.794;12.258;2024-01-27T08:36:29;6.10;38.10
1680;DHT22;838;51.794;12.258;2024-01-27T08:38:55;6.20;37.10
1680;DHT22;838;51.794;12.258;2024-01-27T08:41:21;6.30;37.70
1680;DHT22;838;51.794;12.258;2024-01-27T08:43:47;6.30;35.60
1680;DHT22;838;51.794;12.258;2024-01-27T08:46:13;6.30;36.50
1680;DHT22;838;51.794;12.258;2024-01-27T08:48:40;6.30;36.00
1680;DHT22;838;51.794;12.258;2024-01-27T08:51:09;6.40;34.50
1680;DHT22;838;51.794;12.258;2024-01-27T08:53:35;6.40;33.90
1680;DHT22;838;51.794;12.258;2024-01-27T08:56:01;6.50;33.60
1680;DHT22;838;51.794;12.258;2024-01-27T08:58:27;6.50;31.70
1680;DHT22;838;51.794;12.258;2024-01-27T09:00:53;6.60;32.90
1680;DHT22;838;51.794;12.258;2024-01-27T09:03:19;6.70;29.90
1680;DHT22;838;51.794;12.258;2024-01-27T09:05:46;6.80;29.50
1680;DHT22;838;51.794;12.258;2024-01-27T09:08:12;6.70;29.40
1680;DHT22;838;51.794;12.258;2024-01-27T09:10:38;6.60;29.20
1680;DHT22;838;51.794;12.258;2024-01-27T09:13:04;6.70;30.00
1680;DHT22;838;51.794;12.258;2024-01-27T09:15:33;6.70;30.00
1680;DHT22;838;51.794;12.258;2024-01-27T09:17:58;6.70;29.30
1680;DHT22;838;51.794;12.258;2024-01-27T09:20:24;6.80;28.80
1680;DHT22;838;51.794;12.258;2024-01-27T09:22:50;6.80;28.50
1680;DHT22;838;51.794;12.258;2024-01-27T09:25:16;6.80;29.00
1680;DHT22;838;51.794;12.258;2024-01-27T09:27:42;6.90;27.50
1680;DHT22;838;51.794;12.258;2024-01-27T09:30:08;7.00;27.00
1680;DHT22;838;51.794;12.258;2024-01-27T09:32:34;6.90;27.30
1680;DHT22;838;51.794;12.258;2024-01-27T09:35:00;6.80;26.10
1680;DHT22;838;51.794;12.258;2024-01-27T09:37:25;6.90;27.30
1680;DHT22;838;51.794;12.258;2024-01-27T09:39:51;7.00;25.20
1680;DHT22;838;51.794;12.258;2024-01-27T09:42:20;7.10;25.10
1680;DHT22;838;51.794;12.258;2024-01-27T09:44:48;7.20;25.30
1680;DHT22;838;51.794;12.258;2024-01-27T09:47:14;7.40;24.00
1680;DHT22;838;51.794;12.258;2024-01-27T09:49:40;7.50;22.90
1680;DHT22;838;51.794;12.258;2024-01-27T09:52:07;7.50;21.20
1680;DHT22;838;51.794;12.258;2024-01-27T09:54:34;7.40;21.40
1680;DHT22;838;51.794;12.258;2024-01-27T09:57:00;7.30;23.20
1680;DHT22;838;51.794;12.258;2024-01-27T09:59:26;7.40;23.50
1680;DHT22;838;51.794;12.258;2024-01-27T10:01:53;7.40;21.70
1680;DHT22;838;51.794;12.258;2024-01-27T10:04:20;7.30;22.60
1680;DHT22;838;51.794;12.258;2024-01-27T10:06:47;7.30;22.00
1680;DHT22;838;51.794;12.258;2024-01-27T10:09:14;7.30;22.70
1680;DHT22;838;51.794;12.258;2024-01-27T10:11:45;7.30;23.20
1680;DHT22;838;51.794;12.258;2024-01-27T10:14:11;7.30;22.70
1680;DHT22;838;51.794;12.258;2024-01-27T10:16:44;7.30;21.70
1680;DHT22;838;51.794;12.258;2024-01-27T10:19:19;7.40;21.00
1680;DHT22;838;51.794;12.258;2024-01-27T10:21:45;7.40;20.10
1680;DHT22;838;51.794;12.258;2024-01-27T10:24:11;7.30;20.60
1680;DHT22;838;51.794;12.258;2024-01-27T10:26:37;7.40;20.40
1680;DHT22;838;51.794;12.258;2024-01-27T10:29:03;7.40;21.40
1680;DHT22;838;51.794;12.258;2024-01-27T10:31:34;7.40;20.50
1680;DHT22;838;51.794;12.258;2024-01-27T10:34:02;7.50;21.10
1680;DHT22;838;51.794;12.258;2024-01-27T10:36:43;7.60;20.10
1680;DHT22;838;51.794;12.258;2024-01-27T10:39:22;7.70;20.00
1680;DHT22;838;51.794;12.258;2024-01-27T10:41:50;7.80;19.10
1680;DHT22;838;51.794;12.258;2024-01-27T10:44:17;7.80;17.20
1680;DHT22;838;51.794;12.258;2024-01-27T10:46:48;7.70;18.20
1680;DHT22;838;51.794;12.258;2024-01-27T10:49:16;7.70;18.30
1680;DHT22;838;51.794;12.258;2024-01-27T10:51:45;7.80;18.00
1680;DHT22;838;51.794;12.258;2024-01-27T10:54:14;7.80;17.90
1680;DHT22;838;51.794;12.258;2024-01-27T10:56:42;7.80;16.90
1680;DHT22;838;51.794;12.258;2024-01-27T10:59:09;7.80;16.60
1680;DHT22;838;51.794;12.258;2024-01-27T11:01:38;7.90;17.20
1680;DHT22;838;51.794;12.258;2024-01-27T11:04:05;7.90;16.60
1680;DHT22;838;51.794;12.258;2024-01-27T11:06:33;7.90;16.90
1680;DHT22;838;51.794;12.258;2024-01-27T11:09:01;7.90;17.50
1680;DHT22;838;51.794;12.258;2024-01-27T11:11:31;8.00;16.90
1680;DHT22;838;51.794;12.258;2024-01-27T11:13:57;8.00;16.10
1680;DHT22;838;51.794;12.258;2024-01-27T11:16:24;8.00;18.20
1680;DHT22;838;51.794;12.258;2024-01-27T11:18:50;8.10;17.40
1680;DHT22;838;51.794;12.258;2024-01-27T11:21:17;8.30;18.10
1680;DHT22;838;51.794;12.258;2024-01-27T11:23:43;8.30;14.10
1680;DHT22;838;51.794;12.258;2024-01-27T11:26:10;8.30;12.80
1680;DHT22;838;51.794;12.258;2024-01-27T11:28:40;8.20;14.60
1680;DHT22;838;51.794;12.258;2024-01-27T11:31:07;8.20;15.60
1680;DHT22;838;51.794;12.258;2024-01-27T11:33:33;8.10;14.20
1680;DHT22;838;51.794;12.258;2024-01-27T11:36:05;8.10;14.90
1680;DHT22;838;51.794;12.258;2024-01-27T11:38:32;8.10;14.70
1680;DHT22;838;51.794;12.258;2024-01-27T11:41:01;8.00;15.40
1680;DHT22;838;51.794;12.258;2024-01-27T11:43:27;8.00;16.00
1680;DHT22;838;51.794;12.258;2024-01-27T11:46:00;8.30;16.50
1680;DHT22;838;51.794;12.258;2024-01-27T11:48:26;8.10;17.10
1680;DHT22;838;51.794;12.258;2024-01-27T11:51:21;8.10;15.20
1680;DHT22;838;51.794;12.258;2024-01-27T11:53:48;8.20;15.90
1680;DHT22;838;51.794;12.258;2024-01-27T11:56:14;8.20;15.30
1680;DHT22;838;51.794;12.258;2024-01-27T11:58:47;8.20;15.80
1680;DHT22;838;51.794;12.258;2024-01-27T12:01:14;8.20;16.00
1680;DHT22;838;51.794;12.258;2024-01-27T12:03:40;8.20;16.70
1680;DHT22;838;51.794;12.258;2024-01-27T12:06:07;8.30;16.10
1680;DHT22;838;51.794;12.258;2024-01-27T12:08:35;8.50;14.60
1680;DHT22;838;51.794;12.258;2024-01-27T12:11:01;8.60;14.40
1680;DHT22;838;51.794;12.258;2024-01-27T12:13:27;8.70;12.50
1680;DHT22;838;51.794;12.258;2024-01-27T12:15:53;8.80;12.60
1680;DHT22;838;51.794;12.258;2024-01-27T12:18:19;8.80;10.40
1680;DHT22;838;51.794;12.258;2024-01-27T12:20:45;8.70;8.50
1680;DHT22;838;51.794;12.258;2024-01-27T12:23:11;8.70;9.10
1680;DHT22;838;51.794;12.258;2024-01-27T12:25:36;8.70;9.50
1680;DHT22;838;51.794;12.258;2024-01-27T12:28:03;8.80;10.50
1680;DHT22;838;51.794;12.258;2024-01-27T12:30:29;8.90;8.30
1680;DHT22;838;51.794;12.258;2024-01-27T12:32:56;9.00;7.90
1680;DHT22;838;51.794;12.258;2024-01-27T12:35:23;9.00;6.60
1680;DHT22;838;51.794;12.258;2024-01-27T12:37:49;9.10;6.50
1680;DHT22;838;51.794;12.258;2024-01-27T12:40:19;9.10;7.60
1680;DHT22;838;51.794;12.258;2024-01-27T12:42:46;9.30;9.40
1680;DHT22;838;51.794;12.258;2024-01-27T12:45:12;9.30;3.00
1680;DHT22;838;51.794;12.258;2024-01-27T12:47:38;9.20;1.00
1680;DHT22;838;51.794;12.258;2024-01-27T12:50:05;9.10;1.00
1680;DHT22;838;51.794;12.258;2024-01-27T12:52:32;9.00;1.00
1680;DHT22;838;51.794;12.258;2024-01-27T12:54:58;8.90;1.00
1680;DHT22;838;51.794;12.258;2024-01-27T12:57:24;8.90;3.00
1680;DHT22;838;51.794;12.258;2024-01-27T12:59:50;8.90;1.70
1680;DHT22;838;51.794;12.258;2024-01-27T13:02:15;8.90;1.00
1680;DHT22;838;51.794;12.258;2024-01-27T13:04:41;8.90;2.90
1680;DHT22;838;51.794;12.258;2024-01-27T13:07:07;8.90;1.60
1680;DHT22;838;51.794;12.258;2024-01-27T13:09:34;9.00;2.40
1680;DHT22;838;51.794;12.258;2024-01-27T13:12:00;9.00;1.70
1680;DHT22;838;51.794;12.258;2024-01-27T13:14:26;9.10;3.40
1680;DHT22;838;51.794;12.258;2024-01-27T13:16:51;9.10;3.30
1680;DHT22;838;51.794;12.258;2024-01-27T13:19:20;9.10;1.70
1680;DHT22;838;51.794;12.258;2024-01-27T13:21:45;9.20;3.30
1680;DHT22;838;51.794;12.258;2024-01-27T13:24:11;9.20;1.50
1680;DHT22;838;51.794;12.258;2024-01-27T13:26:37;9.30;1.00
1680;DHT22;838;51.794;12.258;2024-01-27T13:29:07;9.20;1.00
1680;DHT22;838;51.794;12.258;2024-01-27T13:31:34;9.10;2.50
1680;DHT22;838;51.794;12.258;2024-01-27T13:34:00;9.20;1.80
1680;DHT22;838;51.794;12.258;2024-01-27T13:36:26;9.20;1.00
1680;DHT22;838;51.794;12.258;2024-01-27T13:38:52;9.20;1.00
1680;DHT22;838;51.794;12.258;2024-01-27T13:41:18;9.20;1.00
1680;DHT22;838;51.794;12.258;2024-01-27T13:43:44;9.20;1.00
1680;DHT22;838;51.794;12.258;2024-01-27T13:46:10;9.30;1.00
1680;DHT22;838;51.794;12.258;2024-01-27T13:48:36;9.40;1.00
1680;DHT22;838;51.794;12.258;2024-01-27T13:51:02;9.30;1.00
1680;DHT22;838;51.794;12.258;2024-01-27T13:53:28;9.20;1.10
1680;DHT22;838;51.794;12.258;2024-01-27T13:55:54;9.20;1.00
1680;DHT22;838;51.794;12.258;2024-01-27T13:58:20;9.10;1.50
1680;DHT22;838;51.794;12.258;2024-01-27T14:00:47;8.90;1.20
1680;DHT22;838;51.794;12.258;2024-01-27T14:03:13;8.90;1.50
1680;DHT22;838;51.794;12.258;2024-01-27T14:05:39;8.90;1.60
1680;DHT22;838;51.794;12.258;2024-01-27T14:08:07;8.90;2.10
1680;DHT22;838;51.794;12.258;2024-01-27T14:10:34;8.90;3.90
1680;DHT22;838;51.794;12.258;2024-01-27T14:13:01;8.90;5.20
1680;DHT22;838;51.794;12.258;2024-01-27T14:15:30;8.90;5.30
1680;DHT22;838;51.794;12.258;2024-01-27T14:17:56;8.90;4.10
1680;DHT22;838;51.794;12.258;2024-01-27T14:20:21;8.90;4.10
1680;DHT22;838;51.794;12.258;2024-01-27T14:22:47;8.90;4.30
1680;DHT22;838;51.794;12.258;2024-01-27T14:25:13;8.80;4.20
1680;DHT22;838;51.794;12.258;2024-01-27T14:27:39;8.70;5.00
1680;DHT22;838;51.794;12.258;2024-01-27T14:30:05;8.70;5.70
1680;DHT22;838;51.794;12.258;2024-01-27T14:32:31;8.70;6.00
1680;DHT22;838;51.794;12.258;2024-01-27T14:34:57;8.70;5.40
1680;DHT22;838;51.794;12.258;2024-01-27T14:37:24;8.70;6.10
1680;DHT22;838;51.794;12.258;2024-01-27T14:39:49;8.70;6.50
1680;DHT22;838;51.794;12.258;2024-01-27T14:42:16;8.70;7.90
1680;DHT22;838;51.794;12.258;2024-01-27T14:44:44;8.80;7.30
1680;DHT22;838;51.794;12.258;2024-01-27T14:47:15;8.70;6.20
1680;DHT22;838;51.794;12.258;2024-01-27T14:49:40;8.60;7.80
1680;DHT22;838;51.794;12.258;2024-01-27T14:52:09;8.60;8.60
1680;DHT22;838;51.794;12.258;2024-01-27T14:54:36;8.50;9.90
1680;DHT22;838;51.794;12.258;2024-01-27T14:57:02;8.60;10.20
1680;DHT22;838;51.794;12.258;2024-01-27T14:59:29;8.50;9.40
1680;DHT22;838;51.794;12.258;2024-01-27T15:01:55;8.50;10.00
1680;DHT22;838;51.794;12.258;2024-01-27T15:04:23;8.50;10.40
1680;DHT22;838;51.794;12.258;2024-01-27T15:06:53;8.40;10.10
1680;DHT22;838;51.794;12.258;2024-01-27T15:09:20;8.30;9.20
1680;DHT22;838;51.794;12.258;2024-01-27T15:11:46;7.90;9.90
1680;DHT22;838;51.794;12.258;2024-01-27T15:14:11;8.20;9.90
1680;DHT22;838;51.794;12.258;2024-01-27T15:16:37;8.10;10.30
1680;DHT22;838;51.794;12.258;2024-01-27T15:19:03;8.20;9.60
1680;DHT22;838;51.794;12.258;2024-01-27T15:21:30;8.10;10.70
1680;DHT22;838;51.794;12.258;2024-01-27T15:23:56;8.10;10.60
1680;DHT22;838;51.794;12.258;2024-01-27T15:26:22;8.00;10.80
1680;DHT22;838;51.794;12.258;2024-01-27T15:28:48;7.90;11.70
1680;DHT22;838;51.794;12.258;2024-01-27T15:31:14;7.80;12.10
1680;DHT22;838;51.794;12.258;2024-01-27T15:33:40;7.80;12.40
1680;DHT22;838;51.794;12.258;2024-01-27T15:36:07;7.80;13.10
1680;DHT22;838;51.794;12.258;2024-01-27T15:38:33;7.80;12.50
1680;DHT22;838;51.794;12.258;2024-01-27T15:40:59;7.70;13.20
1680;DHT22;838;51.794;12.258;2024-01-27T15:43:25;7.50;13.90
1680;DHT22;838;51.794;12.258;2024-01-27T15:45:50;7.50;14.30
1680;DHT22;838;51.794;12.258;2024-01-27T15:48:19;7.50;14.80
1680;DHT22;838;51.794;12.258;2024-01-27T15:50:45;7.50;15.20
1680;DHT22;838;51.794;12.258;2024-01-27T15:53:12;7.30;16.30
1680;DHT22;838;51.794;12.258;2024-01-27T15:55:38;7.30;17.10
1680;DHT22;838;51.794;12.258;2024-01-27T15:58:04;7.20;17.20
1680;DHT22;838;51.794;12.258;2024-01-27T16:00:29;7.20;17.90
1680;DHT22;838;51.794;12.258;2024-01-27T16:02:55;7.10;18.30
1680;DHT22;838;51.794;12.258;2024-01-27T16:05:21;7.10;19.10
1680;DHT22;838;51.794;12.258;2024-01-27T16:07:47;7.00;18.80
1680;DHT22;838;51.794;12.258;2024-01-27T16:10:13;7.00;19.30
1680;DHT22;838;51.794;12.258;2024-01-27T16:12:38;7.00;19.70